Time;durP1;ratioP1;P1;durP2;ratioP2;P2;SDS_P1;SDS_P2;PMS_P1;PMS_P2;Temp;Humidity;BMP_temperature;BMP_pressure;BME280_temperature;BME280_humidity;BME280_pressure;Samples;Min_cycle;Max_cycle;Signal;HPM_P1;HPM_P2
2021/12/07 00:00:37;;;;;;;25.17;16.63;;;;;;;;;;5079692;28;20398;-31
2021/12/07 00:03:03;;;;;;;23.95;16.63;;;;;;;;;;5087516;28;20518;-30
2021/12/07 00:05:29;;;;;;;27.02;16.42;;;;;;;;;;5086566;28;20121;-31
2021/12/07 00:07:55;;;;;;;22.38;16.67;;;;;;;;;;5056150;28;20391;-29
2021/12/07 00:10:21;;;;;;;24.20;15.95;;;;;;;;;;5082625;28;20049;-30
2021/12/07 00:12:47;;;;;;;25.52;16.52;;;;;;;;;;5063771;28;20438;-32
2021/12/07 00:15:17;;;;;;;26.08;16.90;;;;;;;;;;5076868;28;20455;-29
2021/12/07 00:17:43;;;;;;;26.23;16.02;;;;;;;;;;5075432;28;20036;-30
2021/12/07 00:20:12;;;;;;;22.67;15.20;;;;;;;;;;5072901;28;20063;-31
2021/12/07 00:22:38;;;;;;;23.02;15.55;;;;;;;;;;5066769;28;20037;-31
2021/12/07 00:25:05;;;;;;;26.83;17.88;;;;;;;;;;5086359;28;20115;-31
2021/12/07 00:27:31;;;;;;;25.17;15.88;;;;;;;;;;5085316;28;20039;-30
2021/12/07 00:29:57;;;;;;;27.65;17.23;;;;;;;;;;5084865;28;20044;-30
2021/12/07 00:32:31;;;;;;;25.52;16.63;;;;;;;;;;5085501;28;20039;-29
2021/12/07 00:37:27;;;;;;;26.13;17.10;;;;;;;;;;5084733;28;20127;-30
2021/12/07 00:39:56;;;;;;;25.98;17.05;;;;;;;;;;5085930;28;20041;-30
2021/12/07 00:42:23;;;;;;;24.10;17.33;;;;;;;;;;5085205;28;20044;-31
2021/12/07 00:44:49;;;;;;;24.85;17.52;;;;;;;;;;5087317;28;20106;-29
2021/12/07 00:47:15;;;;;;;25.45;17.35;;;;;;;;;;5071491;28;20078;-31
2021/12/07 00:49:41;;;;;;;26.42;17.20;;;;;;;;;;5089054;28;20044;-32
2021/12/07 00:52:07;;;;;;;27.30;16.98;;;;;;;;;;5079501;28;20135;-30
2021/12/07 00:54:34;;;;;;;28.25;18.08;;;;;;;;;;5089590;28;20061;-30
2021/12/07 00:57:02;;;;;;;28.52;17.95;;;;;;;;;;5076264;28;20051;-29
2021/12/07 00:59:28;;;;;;;22.98;16.65;;;;;;;;;;5071186;28;20044;-30
2021/12/07 01:01:54;;;;;;;28.23;18.67;;;;;;;;;;5091789;28;20589;-31
2021/12/07 01:04:20;;;;;;;29.92;16.48;;;;;;;;;;5083229;28;20403;-30
2021/12/07 01:06:59;;;;;;;26.52;17.13;;;;;;;;;;5087305;28;20521;-29
2021/12/07 01:25:39;;;;;;;27.63;16.63;;;;;;;;;;5079144;28;20032;-33
2021/12/07 01:28:17;;;;;;;30.05;18.35;;;;;;;;;;5071352;28;20048;-30
2021/12/07 01:31:34;;;;;;;29.65;17.52;;;;;;;;;;5070996;28;20255;-30
2021/12/07 01:36:37;;;;;;;30.45;18.58;;;;;;;;;;5072823;28;20422;-30
2021/12/07 02:00:13;;;;;;;26.55;16.92;;;;;;;;;;5080332;28;20051;-29
2021/12/07 02:02:39;;;;;;;26.00;17.52;;;;;;;;;;5077165;28;20089;-31
2021/12/07 02:05:06;;;;;;;25.92;16.88;;;;;;;;;;5076952;28;20047;-29
2021/12/07 02:07:32;;;;;;;25.63;18.02;;;;;;;;;;5087040;28;20225;-31
2021/12/07 02:10:05;;;;;;;28.52;18.13;;;;;;;;;;5070331;28;20039;-29
2021/12/07 02:12:41;;;;;;;30.75;19.73;;;;;;;;;;5070897;28;20040;-30
2021/12/07 02:15:08;;;;;;;29.83;19.90;;;;;;;;;;5076158;28;20489;-30
2021/12/07 02:17:35;;;;;;;24.73;17.25;;;;;;;;;;5072533;28;20079;-31
2021/12/07 02:20:01;;;;;;;25.13;16.98;;;;;;;;;;5079081;28;20578;-32
2021/12/07 02:22:27;;;;;;;26.73;17.67;;;;;;;;;;5079217;28;20504;-31
2021/12/07 02:24:53;;;;;;;23.88;16.33;;;;;;;;;;5072928;28;20074;-31
2021/12/07 02:27:19;;;;;;;25.35;16.15;;;;;;;;;;5084164;28;20044;-30
2021/12/07 02:29:45;;;;;;;24.50;15.93;;;;;;;;;;5079826;28;20036;-30
2021/12/07 02:32:11;;;;;;;26.27;17.42;;;;;;;;;;5084452;28;20044;-32
2021/12/07 02:34:43;;;;;;;23.38;16.48;;;;;;;;;;5077884;28;20052;-30
2021/12/07 02:37:10;;;;;;;23.73;16.15;;;;;;;;;;5075366;28;20040;-31
2021/12/07 02:39:37;;;;;;;21.65;15.35;;;;;;;;;;5078249;28;20067;-34
2021/12/07 02:42:04;;;;;;;23.15;15.82;;;;;;;;;;5081695;28;20324;-31
2021/12/07 02:44:34;;;;;;;22.00;16.17;;;;;;;;;;5072454;28;20493;-29
2021/12/07 02:47:00;;;;;;;24.20;16.08;;;;;;;;;;5081665;28;20115;-32
2021/12/07 02:49:26;;;;;;;24.48;15.63;;;;;;;;;;5087969;28;20580;-30
2021/12/07 02:51:52;;;;;;;25.60;16.45;;;;;;;;;;5071750;28;20040;-32
2021/12/07 02:54:19;;;;;;;27.42;17.42;;;;;;;;;;5076103;28;20092;-32
2021/12/07 02:56:45;;;;;;;28.45;17.77;;;;;;;;;;5093128;28;20494;-32
2021/12/07 02:59:12;;;;;;;24.63;15.95;;;;;;;;;;5071090;28;20040;-31
2021/12/07 03:01:45;;;;;;;27.08;16.30;;;;;;;;;;5092919;28;20616;-31
2021/12/07 03:04:18;;;;;;;23.63;15.55;;;;;;;;;;5079128;28;20032;-28
2021/12/07 03:07:46;;;;;;;26.25;17.70;;;;;;;;;;5078562;28;20295;-32
2021/12/07 03:26:10;;;;;;;29.08;18.38;;;;;;;;;;5070757;28;20059;-30
2021/12/07 03:28:38;;;;;;;32.80;19.02;;;;;;;;;;5059703;28;20115;-30
2021/12/07 03:31:04;;;;;;;30.83;19.98;;;;;;;;;;5080658;28;20040;-30
2021/12/07 03:33:30;;;;;;;33.72;20.38;;;;;;;;;;5075586;28;20032;-31
2021/12/07 03:35:57;;;;;;;31.55;18.95;;;;;;;;;;5082919;28;20059;-32
2021/12/07 03:38:23;;;;;;;32.28;20.00;;;;;;;;;;5070835;28;20106;-30
2021/12/07 03:40:49;;;;;;;31.52;19.02;;;;;;;;;;5088106;28;20345;-30
2021/12/07 03:43:15;;;;;;;30.98;19.27;;;;;;;;;;5070316;28;20032;-29
2021/12/07 03:45:41;;;;;;;30.15;18.83;;;;;;;;;;5079855;28;20040;-30
2021/12/07 03:48:08;;;;;;;34.15;19.85;;;;;;;;;;5048988;28;20032;-30
2021/12/07 03:50:35;;;;;;;32.42;19.52;;;;;;;;;;5075389;28;20051;-29
2021/12/07 03:53:03;;;;;;;31.63;19.48;;;;;;;;;;5048113;28;20048;-29
2021/12/07 03:55:29;;;;;;;29.30;18.58;;;;;;;;;;5085445;28;20479;-31
2021/12/07 03:57:55;;;;;;;30.83;18.92;;;;;;;;;;5092839;22;20037;-33
2021/12/07 04:00:23;;;;;;;29.95;18.20;;;;;;;;;;5068840;28;20741;-34
2021/12/07 04:02:50;;;;;;;31.23;19.75;;;;;;;;;;5051086;28;20132;-32
2021/12/07 04:05:18;;;;;;;36.78;21.90;;;;;;;;;;5053335;28;20401;-33
2021/12/07 04:07:46;;;;;;;31.90;19.02;;;;;;;;;;5065530;28;20036;-32
2021/12/07 04:10:13;;;;;;;30.23;19.77;;;;;;;;;;5055281;28;20121;-34
2021/12/07 04:12:40;;;;;;;29.05;18.10;;;;;;;;;;5060015;28;20040;-32
2021/12/07 04:15:07;;;;;;;32.63;20.25;;;;;;;;;;5062922;28;20504;-33
2021/12/07 04:17:33;;;;;;;33.42;19.42;;;;;;;;;;5048852;28;20170;-32
2021/12/07 04:19:59;;;;;;;31.88;19.40;;;;;;;;;;5018528;28;20119;-30
2021/12/07 04:22:26;;;;;;;33.53;19.02;;;;;;;;;;5051387;28;20504;-31
2021/12/07 04:24:52;;;;;;;34.03;19.58;;;;;;;;;;5064104;28;20182;-32
2021/12/07 04:27:19;;;;;;;32.55;19.48;;;;;;;;;;5056647;28;20033;-32
2021/12/07 04:29:45;;;;;;;32.03;18.63;;;;;;;;;;5059620;28;20087;-32
2021/12/07 04:32:11;;;;;;;32.53;18.88;;;;;;;;;;5065421;28;20040;-32
2021/12/07 04:34:38;;;;;;;30.48;18.52;;;;;;;;;;5051659;28;20033;-32
2021/12/07 04:37:05;;;;;;;27.92;17.40;;;;;;;;;;5057022;28;20041;-32
2021/12/07 04:39:34;;;;;;;32.58;18.58;;;;;;;;;;5059911;28;20093;-32
2021/12/07 04:42:00;;;;;;;35.10;19.95;;;;;;;;;;5067974;28;20048;-30
2021/12/07 04:44:27;;;;;;;32.15;18.77;;;;;;;;;;5051445;28;20037;-31
2021/12/07 04:57:42;;;;;;;34.22;18.10;;;;;;;;;;5051752;28;20551;-32
2021/12/07 05:00:10;;;;;;;28.77;16.10;;;;;;;;;;5049611;28;20490;-33
2021/12/07 05:02:38;;;;;;;34.05;17.50;;;;;;;;;;5015361;28;20136;-31
2021/12/07 05:05:05;;;;;;;30.38;16.17;;;;;;;;;;5035173;28;20416;-32
2021/12/07 05:07:39;;;;;;;27.50;15.70;;;;;;;;;;5031725;28;20057;-30
2021/12/07 05:13:09;;;;;;;31.23;17.27;;;;;;;;;;5032641;28;20049;-32
2021/12/07 05:39:29;;;;;;;33.47;18.92;;;;;;;;;;5039371;28;20072;-32
2021/12/07 05:41:56;;;;;;;32.05;17.60;;;;;;;;;;5038661;28;20033;-32
2021/12/07 05:44:22;;;;;;;33.47;18.52;;;;;;;;;;5030550;28;20140;-31
2021/12/07 05:46:48;;;;;;;30.13;15.57;;;;;;;;;;5042715;28;20064;-31
2021/12/07 05:49:14;;;;;;;28.95;16.40;;;;;;;;;;5050880;28;20106;-32
2021/12/07 05:51:40;;;;;;;32.00;17.05;;;;;;;;;;5043223;28;20044;-32
2021/12/07 05:54:06;;;;;;;32.35;16.23;;;;;;;;;;5042713;28;20452;-31
2021/12/07 05:56:33;;;;;;;34.20;17.05;;;;;;;;;;5033916;28;20052;-32
2021/12/07 05:58:59;;;;;;;28.88;15.52;;;;;;;;;;5035829;28;20047;-33
2021/12/07 06:01:25;;;;;;;29.80;15.85;;;;;;;;;;5054922;28;20033;-33
2021/12/07 06:03:51;;;;;;;29.38;16.90;;;;;;;;;;5050194;28;20037;-33
2021/12/07 06:06:17;;;;;;;31.55;15.82;;;;;;;;;;5062006;28;20400;-32
2021/12/07 06:08:43;;;;;;;30.40;15.60;;;;;;;;;;5051752;28;20037;-32
2021/12/07 06:11:10;;;;;;;33.20;17.13;;;;;;;;;;5052623;28;20036;-34
2021/12/07 06:13:37;;;;;;;32.53;16.75;;;;;;;;;;5045243;28;20048;-32
2021/12/07 06:16:07;;;;;;;33.33;15.98;;;;;;;;;;5048964;28;20116;-31
2021/12/07 06:18:33;;;;;;;33.22;17.23;;;;;;;;;;5048848;28;20044;-30
2021/12/07 06:21:00;;;;;;;31.38;15.80;;;;;;;;;;5053182;28;20486;-33
2021/12/07 06:23:26;;;;;;;34.85;17.63;;;;;;;;;;5035515;28;20072;-32
2021/12/07 06:25:54;;;;;;;35.05;17.60;;;;;;;;;;5058113;28;20118;-34
2021/12/07 06:28:20;;;;;;;30.30;16.38;;;;;;;;;;5054070;28;20079;-32
2021/12/07 06:30:50;;;;;;;36.03;19.33;;;;;;;;;;5046847;28;20037;-30
2021/12/07 06:33:17;;;;;;;34.05;17.77;;;;;;;;;;5047612;28;20343;-33
2021/12/07 06:35:44;;;;;;;34.97;16.80;;;;;;;;;;5057566;28;20307;-30
2021/12/07 06:38:10;;;;;;;35.38;16.23;;;;;;;;;;5049928;28;20041;-30
2021/12/07 06:40:38;;;;;;;39.08;19.10;;;;;;;;;;5065696;28;20040;-33
2021/12/07 06:43:04;;;;;;;34.92;17.90;;;;;;;;;;5053571;28;20120;-33
2021/12/07 06:45:31;;;;;;;33.53;16.65;;;;;;;;;;5058786;28;20095;-32
2021/12/07 06:47:57;;;;;;;32.88;17.65;;;;;;;;;;5066886;28;20036;-30
2021/12/07 06:50:24;;;;;;;36.65;18.88;;;;;;;;;;5061975;28;20072;-31
2021/12/07 06:52:52;;;;;;;34.42;17.15;;;;;;;;;;5039151;28;20036;-31
2021/12/07 06:55:21;;;;;;;35.08;17.58;;;;;;;;;;5053462;28;20052;-31
2021/12/07 06:57:48;;;;;;;35.78;17.52;;;;;;;;;;5051559;28;20098;-30
2021/12/07 07:00:14;;;;;;;33.38;16.52;;;;;;;;;;5053753;28;20041;-31
2021/12/07 07:02:41;;;;;;;38.45;18.67;;;;;;;;;;5056524;28;20041;-31
2021/12/07 07:05:07;;;;;;;37.30;18.17;;;;;;;;;;5054550;28;20044;-32
2021/12/07 07:07:34;;;;;;;37.45;17.95;;;;;;;;;;5057006;28;20498;-34
2021/12/07 07:10:00;;;;;;;38.90;17.23;;;;;;;;;;5055907;28;20049;-30
2021/12/07 07:12:26;;;;;;;33.53;17.45;;;;;;;;;;5050436;28;20414;-31
2021/12/07 07:14:52;;;;;;;36.78;18.02;;;;;;;;;;5050336;28;20501;-31
2021/12/07 07:17:18;;;;;;;37.80;16.95;;;;;;;;;;5056542;28;20048;-31
2021/12/07 07:19:44;;;;;;;33.45;17.67;;;;;;;;;;5058428;28;20044;-31
2021/12/07 07:22:10;;;;;;;43.38;16.30;;;;;;;;;;5064765;28;20553;-30
2021/12/07 07:24:37;;;;;;;41.58;20.27;;;;;;;;;;5060553;28;20032;-31
2021/12/07 07:27:03;;;;;;;36.13;18.40;;;;;;;;;;5044226;28;20147;-30
2021/12/07 07:29:29;;;;;;;38.45;19.02;;;;;;;;;;5058407;28;20082;-31
2021/12/07 07:31:56;;;;;;;40.58;19.10;;;;;;;;;;5064013;28;20036;-30
2021/12/07 07:34:23;;;;;;;40.25;19.40;;;;;;;;;;5050012;28;20502;-34
2021/12/07 07:36:49;;;;;;;49.53;22.10;;;;;;;;;;5057908;28;20395;-31
2021/12/07 07:39:15;;;;;;;39.95;20.70;;;;;;;;;;5064330;28;20032;-30
2021/12/07 07:41:41;;;;;;;44.72;22.92;;;;;;;;;;5066733;28;20090;-30
2021/12/07 07:44:07;;;;;;;39.78;19.80;;;;;;;;;;5061145;28;20423;-30
2021/12/07 07:46:33;;;;;;;37.13;18.63;;;;;;;;;;5059385;28;20033;-30
2021/12/07 07:49:00;;;;;;;35.28;16.33;;;;;;;;;;5065161;28;20091;-30
2021/12/07 07:51:26;;;;;;;33.97;16.58;;;;;;;;;;5054401;28;20036;-31
2021/12/07 07:53:54;;;;;;;33.10;15.40;;;;;;;;;;5060131;28;20067;-31
2021/12/07 07:56:20;;;;;;;37.40;16.23;;;;;;;;;;5041550;28;20047;-35
2021/12/07 07:58:46;;;;;;;40.08;18.08;;;;;;;;;;5057966;28;20094;-30
2021/12/07 08:01:12;;;;;;;36.67;15.38;;;;;;;;;;5068276;28;20135;-32
2021/12/07 08:03:38;;;;;;;41.67;16.70;;;;;;;;;;5035024;28;20140;-32
2021/12/07 08:06:04;;;;;;;41.55;16.88;;;;;;;;;;5049184;28;20506;-31
2021/12/07 08:08:30;;;;;;;44.25;18.15;;;;;;;;;;5051631;28;20032;-32
2021/12/07 08:10:57;;;;;;;38.45;18.08;;;;;;;;;;5053833;28;20037;-33
2021/12/07 08:13:23;;;;;;;34.30;15.82;;;;;;;;;;5033599;28;20044;-31
2021/12/07 08:15:49;;;;;;;33.20;16.48;;;;;;;;;;5067655;28;20039;-32
2021/12/07 08:18:16;;;;;;;32.10;14.95;;;;;;;;;;5049522;28;20509;-30
2021/12/07 08:20:42;;;;;;;32.47;15.70;;;;;;;;;;5051034;28;20041;-31
2021/12/07 08:23:08;;;;;;;32.63;16.70;;;;;;;;;;5046168;28;20120;-33
2021/12/07 08:25:44;;;;;;;32.20;15.20;;;;;;;;;;5045913;28;20044;-31
2021/12/07 08:28:13;;;;;;;34.88;16.00;;;;;;;;;;5046003;28;20393;-33
2021/12/07 08:30:40;;;;;;;33.67;16.55;;;;;;;;;;5029364;28;20123;-31
2021/12/07 08:33:06;;;;;;;31.98;15.40;;;;;;;;;;5052427;28;20066;-34
2021/12/07 08:35:32;;;;;;;33.88;14.80;;;;;;;;;;5046022;28;20087;-30
2021/12/07 08:37:58;;;;;;;28.58;13.65;;;;;;;;;;5055703;28;20508;-30
2021/12/07 08:40:25;;;;;;;38.13;14.93;;;;;;;;;;5048736;28;20119;-33
2021/12/07 08:42:52;;;;;;;41.70;14.95;;;;;;;;;;5037030;28;20080;-31
2021/12/07 08:45:24;;;;;;;33.40;15.45;;;;;;;;;;5052559;28;20029;-31
2021/12/07 08:48:10;;;;;;;34.35;14.50;;;;;;;;;;5050581;28;20045;-32
2021/12/07 08:50:36;;;;;;;36.80;15.18;;;;;;;;;;5058630;28;20091;-32
2021/12/07 08:53:07;;;;;;;35.97;14.93;;;;;;;;;;5062469;28;20040;-33
2021/12/07 09:01:07;;;;;;;33.78;15.65;;;;;;;;;;5034513;28;20095;-30
2021/12/07 09:03:33;;;;;;;35.60;14.88;;;;;;;;;;5052048;28;20044;-26
2021/12/07 09:05:59;;;;;;;35.13;14.75;;;;;;;;;;5052340;28;20478;-28
2021/12/07 09:08:25;;;;;;;35.67;15.82;;;;;;;;;;5052619;28;20116;-27
2021/12/07 09:10:52;;;;;;;38.20;15.32;;;;;;;;;;5052580;28;20558;-28
2021/12/07 09:13:20;;;;;;;38.95;16.23;;;;;;;;;;5034420;28;20171;-27
2021/12/07 09:15:46;;;;;;;32.67;16.23;;;;;;;;;;5052670;28;20044;-27
2021/12/07 09:18:12;;;;;;;33.13;14.73;;;;;;;;;;5058942;28;20047;-31
2021/12/07 09:20:38;;;;;;;22.50;13.20;;;;;;;;;;5046510;28;20044;-30
2021/12/07 09:23:05;;;;;;;27.80;12.45;;;;;;;;;;5069115;28;20032;-34
2021/12/07 09:25:31;;;;;;;23.17;12.43;;;;;;;;;;5076400;22;20039;-30
2021/12/07 09:27:57;;;;;;;25.95;12.80;;;;;;;;;;5082150;28;20552;-29
2021/12/07 09:30:24;;;;;;;27.92;13.40;;;;;;;;;;5064415;28;20174;-30
2021/12/07 09:32:50;;;;;;;18.00;9.98;;;;;;;;;;5059951;28;20059;-29
2021/12/07 09:35:17;;;;;;;19.83;11.13;;;;;;;;;;5063849;28;20535;-29
2021/12/07 09:37:43;;;;;;;20.20;9.40;;;;;;;;;;5069410;28;20032;-30
2021/12/07 09:40:14;;;;;;;18.58;9.45;;;;;;;;;;5046546;28;20072;-31
2021/12/07 09:42:40;;;;;;;17.77;9.30;;;;;;;;;;5067129;28;20119;-29
2021/12/07 09:45:07;;;;;;;18.88;10.00;;;;;;;;;;5065495;28;20110;-30
2021/12/07 09:47:33;;;;;;;15.90;10.25;;;;;;;;;;5065747;28;20063;-30
2021/12/07 09:49:59;;;;;;;17.13;8.93;;;;;;;;;;5045625;28;20036;-30
2021/12/07 09:52:29;;;;;;;21.48;10.63;;;;;;;;;;5058326;28;20041;-29
2021/12/07 09:54:57;;;;;;;14.23;9.15;;;;;;;;;;5073800;28;20389;-29
2021/12/07 09:57:23;;;;;;;11.48;8.35;;;;;;;;;;5071918;28;20040;-31
2021/12/07 09:59:49;;;;;;;15.70;8.50;;;;;;;;;;5072866;28;20040;-28
2021/12/07 10:02:15;;;;;;;17.40;8.35;;;;;;;;;;5072330;28;20102;-30
2021/12/07 10:04:41;;;;;;;13.75;7.40;;;;;;;;;;5072387;28;20561;-30
2021/12/07 10:07:10;;;;;;;13.45;7.15;;;;;;;;;;5072205;28;20216;-29
2021/12/07 10:09:36;;;;;;;12.75;7.88;;;;;;;;;;5068600;28;20347;-31
2021/12/07 10:12:03;;;;;;;15.43;7.43;;;;;;;;;;5072020;28;20028;-33
2021/12/07 10:14:36;;;;;;;15.32;7.15;;;;;;;;;;5070203;28;20089;-33
2021/12/07 10:17:06;;;;;;;12.47;6.90;;;;;;;;;;5071629;28;20032;-34
2021/12/07 10:19:35;;;;;;;14.32;6.38;;;;;;;;;;5070367;28;20340;-33
2021/12/07 10:22:07;;;;;;;13.25;6.32;;;;;;;;;;5070759;28;20037;-35
2021/12/07 10:24:38;;;;;;;12.75;6.78;;;;;;;;;;5070069;28;20051;-34
2021/12/07 10:27:04;;;;;;;12.65;6.22;;;;;;;;;;5071448;28;20397;-33
2021/12/07 10:29:30;;;;;;;11.88;6.93;;;;;;;;;;5052451;28;20037;-32
2021/12/07 10:32:01;;;;;;;17.35;7.75;;;;;;;;;;5070931;28;20036;-31
2021/12/07 10:34:34;;;;;;;10.75;5.93;;;;;;;;;;5069367;28;20409;-32
2021/12/07 10:37:03;;;;;;;14.50;6.40;;;;;;;;;;5069979;28;20375;-32
2021/12/07 10:39:34;;;;;;;13.43;6.85;;;;;;;;;;5069864;28;20477;-33
2021/12/07 10:42:05;;;;;;;10.70;5.70;;;;;;;;;;5069480;28;20044;-32
2021/12/07 10:44:35;;;;;;;12.95;6.65;;;;;;;;;;5068748;28;20069;-33
2021/12/07 10:47:03;;;;;;;11.70;7.05;;;;;;;;;;5069273;28;20758;-34
2021/12/07 10:49:29;;;;;;;10.93;5.55;;;;;;;;;;5072813;28;20036;-34
2021/12/07 10:52:12;;;;;;;7.90;5.50;;;;;;;;;;5068196;28;20044;-33
2021/12/07 10:54:49;;;;;;;9.68;5.57;;;;;;;;;;5062406;28;20044;-34
2021/12/07 10:57:17;;;;;;;11.43;5.65;;;;;;;;;;5048232;28;20097;-34
2021/12/07 10:59:53;;;;;;;10.30;6.05;;;;;;;;;;5067805;28;20089;-33
2021/12/07 11:02:19;;;;;;;10.93;5.75;;;;;;;;;;5064068;28;20489;-35
2021/12/07 11:04:46;;;;;;;8.32;5.43;;;;;;;;;;5062793;28;20072;-35
2021/12/07 11:07:23;;;;;;;10.90;5.38;;;;;;;;;;5064532;28;20033;-33
2021/12/07 11:09:57;;;;;;;9.10;4.78;;;;;;;;;;5064514;28;20033;-35
2021/12/07 11:12:24;;;;;;;10.90;5.13;;;;;;;;;;5060111;28;20036;-29
2021/12/07 11:14:53;;;;;;;7.03;4.45;;;;;;;;;;5058872;28;20064;-30
2021/12/07 11:17:30;;;;;;;9.57;5.07;;;;;;;;;;5051653;28;20099;-33
2021/12/07 11:19:59;;;;;;;9.88;4.90;;;;;;;;;;5067496;28;20055;-29
2021/12/07 11:22:27;;;;;;;15.05;5.43;;;;;;;;;;5071240;28;20076;-32
2021/12/07 11:24:54;;;;;;;12.20;5.60;;;;;;;;;;5059731;28;20123;-34
2021/12/07 11:30:15;;;;;;;12.02;6.00;;;;;;;;;;5065954;28;20037;-33
2021/12/07 11:32:55;;;;;;;14.88;5.53;;;;;;;;;;5068215;28;20151;-34
2021/12/07 11:35:24;;;;;;;34.63;14.13;;;;;;;;;;5066936;28;20123;-32
2021/12/07 11:37:50;;;;;;;71.13;25.92;;;;;;;;;;5068235;28;20037;-34
2021/12/07 11:40:21;;;;;;;22.90;10.52;;;;;;;;;;5067695;28;20193;-33
2021/12/07 11:42:50;;;;;;;6.72;4.57;;;;;;;;;;5073340;28;20405;-32
2021/12/07 11:45:18;;;;;;;8.23;4.65;;;;;;;;;;5066254;28;20047;-33
2021/12/07 11:47:47;;;;;;;10.90;4.45;;;;;;;;;;5068239;28;20131;-33
2021/12/07 11:50:24;;;;;;;10.63;4.85;;;;;;;;;;5066867;28;20107;-33
2021/12/07 11:52:52;;;;;;;10.82;5.03;;;;;;;;;;5067960;28;20535;-32
2021/12/07 11:55:19;;;;;;;8.32;4.65;;;;;;;;;;5066715;28;20083;-33
2021/12/07 11:57:46;;;;;;;10.77;4.47;;;;;;;;;;5067902;28;20058;-33
2021/12/07 12:00:15;;;;;;;9.45;4.30;;;;;;;;;;5067447;28;20173;-33
2021/12/07 12:02:44;;;;;;;11.45;5.05;;;;;;;;;;5067782;28;20063;-36
2021/12/07 12:05:11;;;;;;;7.95;4.28;;;;;;;;;;5067168;28;20420;-36
2021/12/07 12:07:45;;;;;;;11.82;4.97;;;;;;;;;;5056057;28;20062;-33
2021/12/07 12:10:14;;;;;;;9.50;4.88;;;;;;;;;;5066531;28;20564;-39
2021/12/07 12:12:49;;;;;;;11.45;4.78;;;;;;;;;;5063502;28;20372;-35
2021/12/07 12:15:21;;;;;;;12.15;4.40;;;;;;;;;;5065809;28;20025;-34
2021/12/07 12:17:55;;;;;;;10.57;4.10;;;;;;;;;;5066420;28;20044;-35
2021/12/07 12:20:21;;;;;;;;;;;;;;;;;;5069405;28;20040;-36
2021/12/07 12:22:50;;;;;;;8.50;4.35;;;;;;;;;;5067812;28;19947;-34
2021/12/07 12:25:22;;;;;;;9.88;4.55;;;;;;;;;;5064023;28;20040;-33
2021/12/07 12:27:52;;;;;;;9.52;4.57;;;;;;;;;;5061769;28;20045;-39
2021/12/07 12:30:24;;;;;;;12.50;4.97;;;;;;;;;;5061999;28;20401;-33
2021/12/07 12:32:54;;;;;;;11.20;5.05;;;;;;;;;;5057668;28;20090;-36
2021/12/07 12:35:31;;;;;;;11.00;5.03;;;;;;;;;;5065558;28;20115;-34
2021/12/07 12:37:57;;;;;;;8.73;4.40;;;;;;;;;;5065550;28;20033;-35
2021/12/07 12:40:26;;;;;;;9.82;4.70;;;;;;;;;;5071648;28;20041;-34
2021/12/07 12:42:54;;;;;;;10.70;5.05;;;;;;;;;;5050855;28;20098;-34
2021/12/07 12:45:26;;;;;;;7.03;4.82;;;;;;;;;;5069091;28;20043;-33
2021/12/07 12:47:57;;;;;;;11.30;4.55;;;;;;;;;;5068396;28;20045;-35
2021/12/07 12:50:31;;;;;;;11.27;4.55;;;;;;;;;;5068183;28;20493;-35
2021/12/07 12:52:59;;;;;;;10.25;4.57;;;;;;;;;;5054302;28;20071;-36
2021/12/07 12:55:48;;;;;;;13.07;5.07;;;;;;;;;;5068631;28;20036;-37
2021/12/07 12:58:19;;;;;;;11.32;6.10;;;;;;;;;;5019555;28;20052;-33
2021/12/07 13:00:57;;;;;;;10.55;5.22;;;;;;;;;;5066662;28;20039;-35
2021/12/07 13:03:24;;;;;;;11.43;5.28;;;;;;;;;;5068659;28;20054;-35
2021/12/07 13:06:00;;;;;;;9.18;5.28;;;;;;;;;;5067907;28;20049;-37
2021/12/07 13:08:29;;;;;;;10.88;5.03;;;;;;;;;;5066916;28;20087;-34
2021/12/07 13:10:56;;;;;;;12.57;5.07;;;;;;;;;;5068701;28;20555;-35
2021/12/07 13:13:32;;;;;;;13.00;5.82;;;;;;;;;;5068553;28;20466;-34
2021/12/07 13:16:01;;;;;;;15.15;6.30;;;;;;;;;;5068315;28;20359;-34
2021/12/07 13:18:31;;;;;;;14.70;6.60;;;;;;;;;;5068812;28;20448;-34
2021/12/07 13:21:00;;;;;;;10.10;6.60;;;;;;;;;;5053052;28;20404;-32
2021/12/07 13:23:31;;;;;;;12.43;6.95;;;;;;;;;;5064348;28;20033;-35
2021/12/07 13:26:01;;;;;;;10.38;7.63;;;;;;;;;;5069738;28;20048;-36
2021/12/07 13:28:29;;;;;;;14.65;7.78;;;;;;;;;;5067118;28;20042;-34
2021/12/07 13:31:18;;;;;;;13.05;8.10;;;;;;;;;;5064778;28;20081;-34
2021/12/07 13:33:57;;;;;;;13.05;8.13;;;;;;;;;;5066043;28;20040;-34
2021/12/07 13:36:40;;;;;;;13.68;9.45;;;;;;;;;;5068151;28;20229;-37
2021/12/07 13:39:07;;;;;;;21.88;9.88;;;;;;;;;;5067843;28;20043;-35
2021/12/07 13:41:34;;;;;;;16.73;8.82;;;;;;;;;;5071855;28;20039;-35
2021/12/07 13:44:00;;;;;;;15.48;8.93;;;;;;;;;;5064647;28;20045;-35
2021/12/07 13:46:35;;;;;;;15.82;9.07;;;;;;;;;;5065324;28;20399;-34
2021/12/07 13:49:05;;;;;;;22.33;9.40;;;;;;;;;;5063783;28;20090;-33
2021/12/07 13:51:38;;;;;;;13.77;9.18;;;;;;;;;;5060951;28;20083;-33
2021/12/07 13:54:06;;;;;;;14.20;9.50;;;;;;;;;;5065450;28;20481;-33
2021/12/07 13:56:36;;;;;;;14.90;9.27;;;;;;;;;;5067197;28;20098;-33
2021/12/07 13:59:04;;;;;;;15.70;9.48;;;;;;;;;;5068433;28;21779;-34
2021/12/07 14:01:31;;;;;;;19.70;10.52;;;;;;;;;;5061636;28;20032;-34
2021/12/07 14:03:57;;;;;;;21.23;9.30;;;;;;;;;;5063687;28;20401;-35
2021/12/07 14:06:27;;;;;;;15.48;9.40;;;;;;;;;;5068553;28;20036;-32
2021/12/07 14:08:53;;;;;;;16.85;10.65;;;;;;;;;;5066451;28;20119;-32
2021/12/07 14:11:20;;;;;;;19.92;10.52;;;;;;;;;;5066930;28;20535;-33
2021/12/07 14:13:48;;;;;;;19.45;10.10;;;;;;;;;;5061733;28;20099;-34
2021/12/07 14:16:16;;;;;;;15.23;10.05;;;;;;;;;;5063274;28;20041;-38
2021/12/07 14:18:44;;;;;;;19.48;11.32;;;;;;;;;;5067859;28;20036;-33
2021/12/07 14:21:10;;;;;;;17.38;10.32;;;;;;;;;;5065180;28;20025;-34
2021/12/07 14:23:43;;;;;;;19.38;11.30;;;;;;;;;;5069591;28;20613;-33
2021/12/07 14:26:11;;;;;;;18.13;10.40;;;;;;;;;;5051224;28;20028;-33
2021/12/07 14:28:37;;;;;;;21.15;11.30;;;;;;;;;;5068625;28;20028;-34
2021/12/07 14:31:11;;;;;;;16.02;10.00;;;;;;;;;;5067160;28;20109;-34
2021/12/07 14:33:41;;;;;;;21.75;11.38;;;;;;;;;;5065515;28;20119;-32
2021/12/07 14:36:08;;;;;;;17.70;11.20;;;;;;;;;;5058961;28;20128;-36
2021/12/07 14:38:34;;;;;;;18.08;10.40;;;;;;;;;;5060199;28;20050;-35
2021/12/07 14:41:02;;;;;;;14.15;10.32;;;;;;;;;;5059996;28;20033;-32
2021/12/07 14:43:28;;;;;;;20.55;11.30;;;;;;;;;;5063458;28;20103;-34
2021/12/07 14:45:58;;;;;;;23.50;10.88;;;;;;;;;;5065536;28;20398;-33
2021/12/07 14:48:24;;;;;;;17.02;10.65;;;;;;;;;;5066634;28;20040;-33
2021/12/07 14:50:50;;;;;;;19.73;10.55;;;;;;;;;;5066930;28;20036;-34
2021/12/07 14:53:16;;;;;;;23.42;12.88;;;;;;;;;;5062719;28;20036;-35
2021/12/07 14:55:42;;;;;;;17.23;11.38;;;;;;;;;;5063889;28;20513;-33
2021/12/07 14:58:08;;;;;;;16.88;10.20;;;;;;;;;;5064570;28;20037;-34
2021/12/07 15:00:34;;;;;;;17.48;10.05;;;;;;;;;;5066351;28;20032;-34
2021/12/07 15:03:01;;;;;;;21.67;10.73;;;;;;;;;;5059899;28;20123;-35
2021/12/07 15:05:32;;;;;;;20.67;11.27;;;;;;;;;;5065768;28;20040;-33
2021/12/07 15:07:58;;;;;;;20.88;11.57;;;;;;;;;;5065228;28;20052;-33
2021/12/07 15:10:24;;;;;;;16.58;9.73;;;;;;;;;;5071451;28;20474;-32
2021/12/07 15:12:53;;;;;;;17.75;10.43;;;;;;;;;;5066965;28;20535;-32
2021/12/07 15:15:26;;;;;;;21.33;10.65;;;;;;;;;;5066647;28;20048;-36
2021/12/07 15:17:52;;;;;;;16.85;9.93;;;;;;;;;;5071473;28;20496;-33
2021/12/07 15:20:19;;;;;;;17.40;9.70;;;;;;;;;;5070163;28;20037;-35
2021/12/07 15:22:46;;;;;;;19.55;9.20;;;;;;;;;;5069585;28;20044;-34
2021/12/07 15:25:15;;;;;;;15.68;9.68;;;;;;;;;;5069381;28;20040;-37
2021/12/07 15:27:48;;;;;;;18.77;10.13;;;;;;;;;;5069741;28;20044;-33
2021/12/07 15:30:17;;;;;;;;;;;;;;;;;;5066698;28;20037;-37
2021/12/07 15:32:47;;;;;;;13.52;9.32;;;;;;;;;;5070418;28;20057;-34
2021/12/07 15:35:24;;;;;;;18.08;11.13;;;;;;;;;;5063289;28;20537;-34
2021/12/07 15:37:51;;;;;;;20.92;12.20;;;;;;;;;;5073874;28;20404;-34
2021/12/07 15:40:21;;;;;;;18.40;11.02;;;;;;;;;;5068955;28;20032;-32
2021/12/07 15:42:47;;;;;;;20.92;11.77;;;;;;;;;;5050593;28;20059;-33
2021/12/07 15:45:24;;;;;;;25.88;13.20;;;;;;;;;;5069219;28;20037;-33
2021/12/07 15:47:53;;;;;;;21.20;12.23;;;;;;;;;;5058580;28;20135;-34
2021/12/07 15:50:21;;;;;;;33.53;14.57;;;;;;;;;;5074590;28;20119;-34
2021/12/07 15:52:52;;;;;;;27.30;13.80;;;;;;;;;;5070122;28;20063;-31
2021/12/07 15:55:25;;;;;;;22.05;13.07;;;;;;;;;;5069114;28;20044;-36
2021/12/07 15:58:05;;;;;;;27.90;13.75;;;;;;;;;;5063901;28;20048;-33
2021/12/07 16:00:41;;;;;;;24.33;11.77;;;;;;;;;;5068559;28;20052;-33
2021/12/07 16:03:27;;;;;;;24.25;13.45;;;;;;;;;;5051884;28;20052;-35
2021/12/07 16:06:16;;;;;;;24.60;13.52;;;;;;;;;;5064672;28;20036;-34
2021/12/07 16:08:42;;;;;;;28.00;15.05;;;;;;;;;;5068335;28;20040;-33
2021/12/07 16:11:10;;;;;;;25.75;14.90;;;;;;;;;;5065363;28;20517;-32
2021/12/07 16:13:37;;;;;;;25.10;14.73;;;;;;;;;;5059618;28;20032;-33
2021/12/07 16:16:07;;;;;;;24.48;14.40;;;;;;;;;;5066132;28;20078;-35